Time;durP1;ratioP1;P1;durP2;ratioP2;P2;SDS_P1;SDS_P2;PMS_P1;PMS_P2;Temp;Humidity;BMP_temperature;BMP_pressure;BME280_temperature;BME280_humidity;BME280_pressure;Samples;Min_cycle;Max_cycle;Signal;HPM_P1;HPM_P2
2023/07/10 00:01:30;;;;;;;5.65;3.58;;;19.80;99.90;;;;;;5026356;28;20042;-33
2023/07/10 00:03:56;;;;;;;6.82;4.45;;;19.70;99.90;;;;;;5021836;28;20029;-34
2023/07/10 00:06:22;;;;;;;6.90;4.10;;;19.50;99.90;;;;;;5018979;28;20499;-34
2023/07/10 00:08:48;;;;;;;8.00;4.38;;;19.10;99.90;;;;;;5023247;28;20017;-31
2023/07/10 00:11:36;;;;;;;5.72;4.00;;;19.00;99.90;;;;;;5020988;28;20091;-31
2023/07/10 00:14:03;;;;;;;7.07;3.97;;;19.00;99.90;;;;;;5018823;28;20026;-31
2023/07/10 00:16:29;;;;;;;6.53;3.88;;;19.00;99.90;;;;;;5021646;28;20043;-33
2023/07/10 00:18:54;;;;;;;4.70;4.00;;;19.10;99.90;;;;;;5020007;28;20037;-31
2023/07/10 00:21:20;;;;;;;5.22;3.97;;;19.20;99.90;;;;;;5022585;28;20083;-33
2023/07/10 00:23:46;;;;;;;6.18;3.75;;;19.20;99.90;;;;;;5017374;28;20041;-31
2023/07/10 00:26:22;;;;;;;6.47;4.03;;;19.20;99.90;;;;;;5025051;28;20057;-31
2023/07/10 00:28:52;;;;;;;5.10;3.70;;;19.30;99.90;;;;;;5022034;28;20026;-31
2023/07/10 00:31:18;;;;;;;6.00;4.03;;;19.20;99.90;;;;;;5019017;28;20502;-33
2023/07/10 00:33:47;;;;;;;7.97;4.53;;;19.20;99.90;;;;;;5016517;28;20021;-36
2023/07/10 00:36:30;;;;;;;6.80;4.20;;;19.20;99.90;;;;;;5021404;28;20037;-33
2023/07/10 00:39:22;;;;;;;6.00;4.03;;;19.00;99.90;;;;;;5021825;28;20048;-33
2023/07/10 00:42:13;;;;;;;4.38;3.90;;;18.90;99.90;;;;;;5014467;28;20492;-36
2023/07/10 00:44:48;;;;;;;5.38;3.85;;;19.10;99.90;;;;;;5016881;28;20041;-33
2023/07/10 00:47:25;;;;;;;7.60;4.05;;;19.00;99.90;;;;;;5016945;28;20570;-37
2023/07/10 00:50:21;;;;;;;5.63;4.15;;;18.80;99.90;;;;;;5018505;28;20531;-35
2023/07/10 00:52:49;;;;;;;7.10;4.10;;;18.80;99.90;;;;;;5018489;28;20034;-35
2023/07/10 00:55:27;;;;;;;5.82;3.80;;;18.80;99.90;;;;;;5007934;28;20029;-33
2023/07/10 00:58:18;;;;;;;6.82;4.20;;;18.80;99.90;;;;;;5016789;28;20391;-33
2023/07/10 01:01:15;;;;;;;5.97;4.43;;;18.80;99.90;;;;;;5016730;28;20286;-43
2023/07/10 01:03:42;;;;;;;;;;;18.50;99.90;;;;;;5021217;28;20444;-39
2023/07/10 01:06:29;;;;;;;6.80;4.38;;;18.40;99.90;;;;;;5023825;28;19974;-40
2023/07/10 01:09:00;;;;;;;5.57;3.60;;;18.50;99.90;;;;;;5018910;28;20026;-40
2023/07/10 01:11:26;;;;;;;7.85;4.22;;;18.50;99.90;;;;;;5018910;28;20033;-43
2023/07/10 01:13:56;;;;;;;5.30;4.20;;;18.60;99.90;;;;;;5020396;28;20057;-40
2023/07/10 01:16:23;;;;;;;8.80;4.47;;;18.60;99.90;;;;;;5018390;28;20479;-42
2023/07/10 01:18:49;;;;;;;4.82;3.88;;;18.70;99.90;;;;;;5020416;28;20030;-36
2023/07/10 01:21:32;;;;;;;6.22;4.40;;;18.70;99.90;;;;;;5024796;28;20824;-43
2023/07/10 01:24:01;;;;;;;6.32;4.43;;;18.60;99.90;;;;;;5021118;28;20574;-41
2023/07/10 01:26:28;;;;;;;7.07;4.68;;;18.30;99.90;;;;;;5024416;28;20063;-42
2023/07/10 01:28:56;;;;;;;6.40;4.72;;;18.20;99.90;;;;;;5020977;28;20115;-43
2023/07/10 01:31:23;;;;;;;6.15;4.40;;;18.20;99.90;;;;;;5018710;28;20034;-42
2023/07/10 01:33:53;;;;;;;5.90;4.63;;;18.30;99.90;;;;;;5025934;28;20025;-40
2023/07/10 01:36:22;;;;;;;5.18;3.90;;;18.30;99.90;;;;;;5024473;28;20091;-41
2023/07/10 01:38:53;;;;;;;6.25;4.15;;;18.40;99.90;;;;;;5020078;28;20112;-43
2023/07/10 01:41:36;;;;;;;5.50;4.15;;;18.40;99.90;;;;;;5024971;28;20487;-43
2023/07/10 01:44:21;;;;;;;6.07;4.50;;;18.30;99.90;;;;;;5019660;28;20035;-43
2023/07/10 01:46:49;;;;;;;7.55;4.60;;;18.10;99.90;;;;;;5021293;28;20025;-36
2023/07/10 01:49:16;;;;;;;6.25;3.92;;;18.10;99.90;;;;;;5024817;28;20033;-39
2023/07/10 01:51:41;;;;;;;5.78;4.20;;;18.20;99.90;;;;;;5020814;28;20117;-42
2023/07/10 01:54:13;;;;;;;6.63;4.18;;;18.20;99.90;;;;;;5016577;28;20112;-42
2023/07/10 01:56:39;;;;;;;7.30;3.83;;;18.20;99.90;;;;;;5021276;28;20037;-42
2023/07/10 01:59:04;;;;;;;7.18;4.43;;;18.10;99.90;;;;;;5023571;28;20387;-42
2023/07/10 02:01:30;;;;;;;6.07;4.50;;;18.10;99.90;;;;;;5025637;28;20449;-42
2023/07/10 02:03:55;;;;;;;7.03;4.20;;;18.20;99.90;;;;;;5021364;28;20076;-43
2023/07/10 02:06:21;;;;;;;5.35;4.10;;;17.90;99.90;;;;;;5022833;28;20033;-39
2023/07/10 02:08:47;;;;;;;6.00;4.35;;;18.00;99.90;;;;;;5023859;28;20849;-43
2023/07/10 02:11:13;;;;;;;6.35;4.28;;;17.90;99.90;;;;;;5019182;28;20029;-33
2023/07/10 02:13:39;;;;;;;5.55;4.28;;;17.90;99.90;;;;;;5020070;28;20022;-33
2023/07/10 02:16:05;;;;;;;6.45;4.28;;;18.00;99.90;;;;;;5004751;28;20091;-34
2023/07/10 02:18:31;;;;;;;6.05;4.10;;;18.00;99.90;;;;;;5018548;28;20109;-33
2023/07/10 02:20:56;;;;;;;5.47;3.95;;;18.00;99.90;;;;;;5021159;28;20702;-34
2023/07/10 02:23:22;;;;;;;5.20;4.05;;;17.90;99.90;;;;;;5019972;28;20845;-34
2023/07/10 02:25:48;;;;;;;8.80;5.00;;;17.70;99.90;;;;;;5024414;28;20559;-37
2023/07/10 02:28:15;;;;;;;6.32;4.15;;;17.50;99.90;;;;;;5021027;28;20029;-34
2023/07/10 02:30:40;;;;;;;4.85;4.43;;;17.40;99.90;;;;;;5019011;28;20028;-33
2023/07/10 02:33:06;;;;;;;7.15;4.90;;;17.50;99.90;;;;;;5022006;28;20026;-34
2023/07/10 02:35:32;;;;;;;5.75;4.00;;;17.40;99.90;;;;;;5025038;28;20044;-34
2023/07/10 02:37:58;;;;;;;5.40;4.13;;;17.20;99.90;;;;;;5020611;28;20030;-35
2023/07/10 02:40:23;;;;;;;5.85;4.15;;;17.30;99.90;;;;;;5023729;28;20036;-35
2023/07/10 02:42:49;;;;;;;4.57;3.80;;;17.40;99.90;;;;;;5022202;28;20117;-34
2023/07/10 02:45:16;;;;;;;5.65;4.25;;;17.50;99.90;;;;;;5015570;28;20400;-35
2023/07/10 02:47:42;;;;;;;5.83;4.67;;;17.40;99.90;;;;;;5023773;28;20434;-34
2023/07/10 02:50:09;;;;;;;6.57;4.47;;;17.50;99.90;;;;;;5001779;28;20276;-33
2023/07/10 02:52:35;;;;;;;6.03;4.50;;;17.50;99.90;;;;;;5025287;28;20025;-34
2023/07/10 02:55:00;;;;;;;9.10;4.80;;;17.60;99.90;;;;;;5023968;28;20040;-34
2023/07/10 02:57:26;;;;;;;5.13;4.13;;;17.60;99.90;;;;;;5021988;28;20030;-33
2023/07/10 02:59:51;;;;;;;7.85;4.22;;;17.40;99.90;;;;;;5020627;28;20058;-35
2023/07/10 03:02:18;;;;;;;6.10;4.03;;;17.40;99.90;;;;;;5022272;28;20041;-33
2023/07/10 03:04:43;;;;;;;7.00;4.50;;;17.50;99.90;;;;;;5021861;28;20053;-33
2023/07/10 03:07:09;;;;;;;7.35;4.93;;;17.40;99.90;;;;;;5025387;28;20025;-33
2023/07/10 03:09:35;;;;;;;5.68;3.97;;;17.30;99.90;;;;;;5023002;28;20064;-33
2023/07/10 03:12:00;;;;;;;7.57;4.20;;;17.20;99.90;;;;;;5015660;28;20123;-36
2023/07/10 03:14:26;;;;;;;7.15;4.25;;;17.20;99.90;;;;;;5019313;28;20021;-33
2023/07/10 03:16:52;;;;;;;7.05;4.40;;;17.20;99.90;;;;;;5016790;28;20021;-33
2023/07/10 03:19:18;;;;;;;6.80;4.13;;;17.20;99.90;;;;;;5024791;28;20030;-34
2023/07/10 03:21:43;;;;;;;6.75;3.97;;;17.30;99.90;;;;;;5023559;28;20041;-42
2023/07/10 03:24:09;;;;;;;6.20;4.35;;;17.30;99.90;;;;;;5020138;28;20508;-38
2023/07/10 03:26:34;;;;;;;6.07;4.20;;;17.40;99.90;;;;;;5018074;28;20036;-42
2023/07/10 03:29:09;;;;;;;6.85;4.43;;;17.40;99.90;;;;;;5020876;28;20037;-42
2023/07/10 03:31:35;;;;;;;6.03;4.13;;;17.50;99.90;;;;;;5016631;28;20037;-41
2023/07/10 03:34:01;;;;;;;6.75;4.40;;;17.20;99.90;;;;;;5001981;28;20033;-43
2023/07/10 03:36:27;;;;;;;9.98;4.45;;;17.00;99.90;;;;;;5022231;28;20067;-43
2023/07/10 03:38:53;;;;;;;8.25;4.10;;;16.90;99.90;;;;;;5016328;28;20034;-41
2023/07/10 03:41:19;;;;;;;6.05;4.43;;;16.80;99.90;;;;;;5023538;28;20033;-43
2023/07/10 03:43:45;;;;;;;7.28;4.20;;;16.80;99.90;;;;;;5018580;28;20030;-43
2023/07/10 03:46:11;;;;;;;6.82;4.80;;;16.90;99.90;;;;;;5019692;28;20033;-42
2023/07/10 03:48:37;;;;;;;7.15;4.50;;;16.50;99.90;;;;;;5022197;28;20176;-41
2023/07/10 03:51:03;;;;;;;6.30;4.50;;;16.70;99.90;;;;;;5018605;28;20454;-36
2023/07/10 03:53:29;;;;;;;6.38;4.43;;;16.70;99.90;;;;;;5022094;28;20546;-43
2023/07/10 03:55:55;;;;;;;6.13;4.20;;;16.80;99.90;;;;;;5021265;28;20056;-43
2023/07/10 03:58:31;;;;;;;6.00;4.38;;;16.90;99.90;;;;;;5020705;28;20123;-38
2023/07/10 04:00:58;;;;;;;4.85;4.10;;;17.00;99.90;;;;;;5024484;28;20057;-35
2023/07/10 04:03:26;;;;;;;8.65;4.30;;;17.00;99.90;;;;;;5021478;28;20029;-42
2023/07/10 04:05:54;;;;;;;7.05;4.40;;;17.20;99.90;;;;;;5022091;28;20384;-43
2023/07/10 04:08:20;;;;;;;5.93;4.25;;;17.30;99.90;;;;;;5020111;28;20022;-43
2023/07/10 04:10:54;;;;;;;7.07;4.60;;;17.40;99.90;;;;;;5015819;28;20037;-41
2023/07/10 04:13:20;;;;;;;6.43;4.13;;;17.40;99.90;;;;;;5021391;28;20025;-43
2023/07/10 04:16:06;;;;;;;7.22;4.22;;;17.40;99.90;;;;;;5021195;28;20623;-43
2023/07/10 04:18:34;;;;;;;8.02;4.68;;;17.50;99.90;;;;;;5016889;28;20107;-42
2023/07/10 04:21:02;;;;;;;6.40;4.50;;;17.50;99.90;;;;;;5023504;28;20095;-40
2023/07/10 04:23:28;;;;;;;8.02;4.32;;;17.60;99.90;;;;;;5020006;28;20167;-41
2023/07/10 04:25:54;;;;;;;5.32;4.10;;;17.50;99.90;;;;;;5023753;28;20121;-41
2023/07/10 04:28:20;;;;;;;7.90;4.60;;;17.60;99.90;;;;;;5018317;28;20061;-44
2023/07/10 04:30:47;;;;;;;7.47;4.72;;;17.60;99.90;;;;;;5018637;28;20614;-43
2023/07/10 04:33:14;;;;;;;6.90;5.10;;;17.70;99.90;;;;;;5017819;28;20091;-33
2023/07/10 04:35:41;;;;;;;8.40;5.20;;;17.70;99.90;;;;;;5018287;28;20021;-42
2023/07/10 04:38:07;;;;;;;5.72;4.38;;;17.60;99.90;;;;;;5002523;28;20040;-44
2023/07/10 04:40:33;;;;;;;6.60;4.50;;;17.60;99.90;;;;;;5019884;28;20084;-35
2023/07/10 04:42:59;;;;;;;7.88;4.72;;;17.60;99.90;;;;;;5018180;28;20033;-44
2023/07/10 04:45:25;;;;;;;9.07;4.80;;;17.50;99.90;;;;;;5017508;28;20038;-42
2023/07/10 04:47:51;;;;;;;7.40;4.30;;;17.60;99.90;;;;;;5020864;28;20022;-38
2023/07/10 04:50:16;;;;;;;6.20;4.38;;;17.70;99.90;;;;;;5020172;28;20025;-39
2023/07/10 04:52:42;;;;;;;6.35;4.70;;;17.80;99.90;;;;;;5019161;28;20021;-40
2023/07/10 04:55:07;;;;;;;10.43;5.25;;;17.90;99.90;;;;;;5026951;28;20088;-43
2023/07/10 04:57:33;;;;;;;7.20;4.40;;;17.80;99.90;;;;;;5022689;28;20163;-33
2023/07/10 04:59:59;;;;;;;8.73;4.88;;;17.90;99.90;;;;;;5021379;28;20049;-42
2023/07/10 05:02:24;;;;;;;6.88;4.70;;;17.80;99.90;;;;;;5023102;28;20038;-42
2023/07/10 05:04:50;;;;;;;6.50;4.32;;;18.00;99.90;;;;;;5019497;28;20021;-41
2023/07/10 05:07:15;;;;;;;7.90;4.95;;;18.10;99.90;;;;;;5024367;28;20030;-39
2023/07/10 05:09:41;;;;;;;7.63;4.75;;;18.10;99.90;;;;;;5020628;28;20406;-40
2023/07/10 05:12:07;;;;;;;7.55;4.85;;;18.20;99.90;;;;;;5020031;28;20030;-42
2023/07/10 05:14:33;;;;;;;6.90;5.07;;;18.30;99.90;;;;;;5027711;28;20107;-42
2023/07/10 05:16:58;;;;;;;8.43;4.60;;;18.30;99.90;;;;;;5019604;28;20087;-42
2023/07/10 05:19:24;;;;;;;7.38;4.43;;;18.40;99.90;;;;;;5024018;28;20495;-41
2023/07/10 05:21:49;;;;;;;7.93;5.13;;;18.40;99.90;;;;;;5025096;28;20025;-42
2023/07/10 05:24:18;;;;;;;7.50;4.90;;;18.50;99.90;;;;;;5022712;28;20030;-42
2023/07/10 05:26:43;;;;;;;;;;;18.60;99.90;;;;;;5024460;28;20040;-40
2023/07/10 05:29:09;;;;;;;6.63;5.25;;;18.70;99.90;;;;;;5025817;28;19905;-42
2023/07/10 05:31:34;;;;;;;7.43;5.32;;;18.70;99.90;;;;;;5020734;28;20033;-41
2023/07/10 05:34:00;;;;;;;10.43;5.00;;;18.70;99.90;;;;;;5024560;28;20079;-41
2023/07/10 05:36:25;;;;;;;6.38;4.43;;;18.80;99.90;;;;;;5023853;28;20479;-41
2023/07/10 05:38:52;;;;;;;7.78;4.82;;;18.90;99.90;;;;;;5020837;28;20030;-39
2023/07/10 05:41:19;;;;;;;7.85;4.85;;;18.90;99.90;;;;;;5025024;28;20087;-40
2023/07/10 05:43:45;;;;;;;7.10;5.18;;;18.90;99.90;;;;;;5022324;28;20032;-41
2023/07/10 05:46:12;;;;;;;9.25;5.18;;;18.90;99.90;;;;;;5017286;28;20068;-41
2023/07/10 05:48:38;;;;;;;7.85;4.85;;;18.90;99.90;;;;;;5025054;28;20474;-37
2023/07/10 05:51:05;;;;;;;6.13;4.75;;;18.90;99.90;;;;;;5022759;28;20022;-39
2023/07/10 05:53:33;;;;;;;6.22;4.38;;;18.90;99.90;;;;;;5024366;28;20025;-41
2023/07/10 05:56:00;;;;;;;8.10;5.15;;;18.90;99.90;;;;;;5011086;28;20589;-40
2023/07/10 05:58:28;;;;;;;8.95;5.15;;;19.00;99.90;;;;;;5019985;28;20052;-41
2023/07/10 06:00:57;;;;;;;6.53;4.53;;;19.10;99.90;;;;;;5021450;28;20065;-40
2023/07/10 06:03:23;;;;;;;7.57;4.60;;;19.10;99.90;;;;;;5022354;28;20407;-40
2023/07/10 06:06:05;;;;;;;8.07;4.57;;;19.30;99.90;;;;;;5023460;28;20037;-38
2023/07/10 06:08:32;;;;;;;6.18;4.35;;;19.40;99.90;;;;;;5004943;28;20124;-36
2023/07/10 06:10:58;;;;;;;7.27;4.93;;;19.50;99.90;;;;;;5021454;28;20056;-40
2023/07/10 06:13:24;;;;;;;7.95;4.38;;;19.70;99.90;;;;;;5021389;28;20260;-40
2023/07/10 06:15:53;;;;;;;7.18;4.53;;;19.80;99.90;;;;;;5021401;28;20112;-40
2023/07/10 06:18:19;;;;;;;7.03;4.05;;;19.80;99.90;;;;;;5022215;28;20025;-41
2023/07/10 06:20:54;;;;;;;4.85;4.13;;;19.90;99.90;;;;;;5020919;28;20140;-39
2023/07/10 06:23:21;;;;;;;6.70;4.30;;;20.00;99.90;;;;;;5021369;28;20053;-41
2023/07/10 06:25:46;;;;;;;5.38;4.30;;;20.10;99.90;;;;;;5017924;28;20510;-41
2023/07/10 06:28:13;;;;;;;6.75;4.30;;;20.10;99.90;;;;;;5026798;28;20057;-41
2023/07/10 06:30:41;;;;;;;9.23;4.25;;;20.10;99.90;;;;;;5019974;28;20029;-41
2023/07/10 06:33:06;;;;;;;;;;;20.20;99.90;;;;;;5020895;28;20021;-41
2023/07/10 06:35:32;;;;;;;6.05;4.20;;;20.20;99.90;;;;;;5021598;28;19920;-38
2023/07/10 06:37:58;;;;;;;6.47;4.00;;;20.10;99.90;;;;;;5018629;28;20051;-41
2023/07/10 06:40:23;;;;;;;5.63;4.18;;;20.10;99.90;;;;;;5019782;28;20025;-40
2023/07/10 06:42:49;;;;;;;6.70;4.70;;;20.00;99.90;;;;;;5022219;28;20100;-41
2023/07/10 06:45:15;;;;;;;9.52;4.38;;;20.10;99.90;;;;;;5018058;28;20030;-40
2023/07/10 06:47:43;;;;;;;6.35;4.05;;;20.10;99.90;;;;;;5004272;28;20478;-38
2023/07/10 06:50:13;;;;;;;5.50;3.83;;;20.20;99.90;;;;;;5020999;28;20025;-41
2023/07/10 06:52:43;;;;;;;5.10;4.10;;;20.30;99.90;;;;;;5014818;28;20022;-43
2023/07/10 06:55:15;;;;;;;6.72;4.18;;;20.30;99.90;;;;;;5023527;28;20442;-42
2023/07/10 06:57:41;;;;;;;5.93;4.20;;;20.40;99.90;;;;;;5019962;28;20053;-41
2023/07/10 07:00:09;;;;;;;4.85;3.80;;;20.30;99.90;;;;;;5019470;28;20159;-42
2023/07/10 07:02:35;;;;;;;;;;;20.30;99.90;;;;;;5023695;28;20038;-42
2023/07/10 07:05:03;;;;;;;5.13;3.92;;;20.30;99.90;;;;;;5017519;28;19976;-39
2023/07/10 07:07:28;;;;;;;7.67;4.47;;;20.30;99.90;;;;;;5023097;28;20022;-42
2023/07/10 07:09:54;;;;;;;5.70;3.95;;;20.30;99.90;;;;;;5020923;28;20025;-42
2023/07/10 07:12:20;;;;;;;10.65;3.80;;;20.30;99.90;;;;;;5020682;28;20056;-42
2023/07/10 07:14:45;;;;;;;7.80;3.95;;;20.30;99.90;;;;;;5021855;28;20531;-39
2023/07/10 07:17:12;;;;;;;6.95;3.67;;;20.30;99.90;;;;;;5020021;28;20052;-39
2023/07/10 07:19:37;;;;;;;6.70;4.30;;;20.40;99.90;;;;;;5019038;28;20104;-42
2023/07/10 07:22:03;;;;;;;4.90;3.95;;;20.40;99.90;;;;;;5022414;28;20153;-43
2023/07/10 07:24:29;;;;;;;8.73;4.03;;;20.40;99.90;;;;;;5023449;28;20038;-43
2023/07/10 07:26:55;;;;;;;6.15;4.53;;;20.40;99.90;;;;;;5023430;28;20487;-40
2023/07/10 07:29:20;;;;;;;7.43;3.90;;;20.50;99.90;;;;;;5023332;28;20056;-43
2023/07/10 07:31:46;;;;;;;4.10;3.72;;;20.50;99.90;;;;;;5014469;28;20053;-42
2023/07/10 07:34:12;;;;;;;8.35;4.70;;;20.50;99.90;;;;;;5018354;28;20089;-43
2023/07/10 07:36:38;;;;;;;7.38;4.07;;;20.60;99.90;;;;;;5019950;28;20113;-40
2023/07/10 07:39:05;;;;;;;6.65;4.22;;;20.60;99.90;;;;;;5017934;28;20109;-42
2023/07/10 07:41:34;;;;;;;7.10;4.15;;;20.60;99.90;;;;;;5020123;28;20029;-40
2023/07/10 07:44:01;;;;;;;7.95;4.07;;;20.60;99.90;;;;;;5000131;28;20029;-37
2023/07/10 07:46:28;;;;;;;5.05;3.88;;;20.60;99.90;;;;;;5001444;28;20041;-40
2023/07/10 07:48:53;;;;;;;5.10;4.10;;;20.60;99.90;;;;;;5007290;28;20026;-42
2023/07/10 07:51:19;;;;;;;6.97;4.25;;;20.60;99.90;;;;;;5018522;28;20099;-42
2023/07/10 07:53:44;;;;;;;5.47;3.72;;;20.60;99.90;;;;;;5017037;28;20068;-38
2023/07/10 07:56:11;;;;;;;6.45;4.20;;;20.60;99.90;;;;;;5022918;28;20030;-39
2023/07/10 07:58:36;;;;;;;8.73;4.45;;;20.50;99.90;;;;;;5018114;28;20033;-42
2023/07/10 08:01:02;;;;;;;7.15;4.72;;;20.40;99.90;;;;;;5021003;28;20052;-42
2023/07/10 08:03:29;;;;;;;5.47;4.30;;;20.40;99.90;;;;;;5022215;28;20034;-40
2023/07/10 08:05:55;;;;;;;7.30;4.15;;;20.30;99.90;;;;;;5020129;28;20067;-42
2023/07/10 08:08:22;;;;;;;6.55;4.40;;;20.30;99.90;;;;;;5023952;28;20427;-41
2023/07/10 08:10:49;;;;;;;6.22;4.10;;;20.40;99.90;;;;;;5017991;28;20096;-42
2023/07/10 08:13:18;;;;;;;9.18;4.68;;;20.40;99.90;;;;;;5023606;28;20839;-42
2023/07/10 08:15:44;;;;;;;6.50;4.68;;;20.40;99.90;;;;;;5020354;28;20082;-41
2023/07/10 08:18:10;;;;;;;6.13;4.50;;;20.40;99.90;;;;;;5020096;28;20056;-42
2023/07/10 08:20:36;;;;;;;6.88;4.82;;;20.40;99.90;;;;;;5020646;28;20073;-39
2023/07/10 08:23:03;;;;;;;5.57;4.53;;;20.50;99.90;;;;;;5021707;28;20553;-42
2023/07/10 08:25:29;;;;;;;8.68;4.85;;;20.40;99.90;;;;;;5014565;28;20034;-42
2023/07/10 08:27:58;;;;;;;6.53;4.30;;;20.40;99.90;;;;;;5024027;28;21750;-42
2023/07/10 08:30:24;;;;;;;6.13;4.57;;;20.40;99.90;;;;;;5024252;28;20029;-42
2023/07/10 08:32:50;;;;;;;8.95;4.68;;;20.40;99.90;;;;;;5023057;28;20117;-42
2023/07/10 08:35:16;;;;;;;7.70;4.80;;;20.50;99.90;;;;;;5025136;28;20041;-36
2023/07/10 08:37:41;;;;;;;7.82;4.65;;;20.50;99.90;;;;;;5024587;28;20044;-42
2023/07/10 08:40:14;;;;;;;7.10;4.32;;;20.50;99.90;;;;;;5017656;28;20507;-42
2023/07/10 08:42:40;;;;;;;9.40;4.30;;;20.60;99.90;;;;;;5022556;28;20137;-41
2023/07/10 08:45:15;;;;;;;5.45;3.63;;;20.70;99.90;;;;;;5022775;28;20617;-40
2023/07/10 08:47:50;;;;;;;5.60;4.20;;;20.80;99.90;;;;;;5024394;28;20033;-39
2023/07/10 08:50:22;;;;;;;5.47;4.05;;;20.80;99.90;;;;;;5024711;28;20034;-42
2023/07/10 08:52:47;;;;;;;4.53;3.50;;;20.90;99.90;;;;;;5017920;28;20021;-41
2023/07/10 08:55:18;;;;;;;5.32;3.65;;;21.00;99.90;;;;;;5019897;28;20478;-42
2023/07/10 08:57:53;;;;;;;4.95;3.42;;;21.10;99.90;;;;;;5026078;28;20033;-41
2023/07/10 09:00:19;;;;;;;7.30;3.60;;;21.30;99.90;;;;;;5021305;28;20064;-42
2023/07/10 09:02:53;;;;;;;6.38;3.97;;;21.40;99.90;;;;;;5025434;28;20021;-42
2023/07/10 09:05:31;;;;;;;4.65;3.28;;;21.50;99.90;;;;;;5021545;28;20045;-42
2023/07/10 09:08:03;;;;;;;7.95;3.63;;;21.70;99.90;;;;;;5021819;28;20509;-38
2023/07/10 09:10:47;;;;;;;8.00;4.38;;;21.80;99.90;;;;;;5022818;28;20064;-41
2023/07/10 09:13:41;;;;;;;6.55;3.83;;;22.00;99.90;;;;;;5024745;28;20025;-30
2023/07/10 09:16:17;;;;;;;4.28;3.83;;;22.10;99.90;;;;;;4988092;28;20049;-30
2023/07/10 09:18:43;;;;;;;7.80;3.70;;;22.20;99.90;;;;;;5029172;28;20021;-30
2023/07/10 09:21:41;;;;;;;6.60;3.60;;;22.30;99.90;;;;;;5025419;28;20033;-31
2023/07/10 09:24:16;;;;;;;5.60;3.65;;;22.60;99.90;;;;;;4979565;28;20076;-30
2023/07/10 09:26:42;;;;;;;6.97;4.15;;;23.10;99.90;;;;;;5020821;28;20494;-36
2023/07/10 09:29:11;;;;;;;6.13;3.83;;;23.60;99.90;;;;;;5028181;28;20159;-30
2023/07/10 09:31:50;;;;;;;6.22;3.53;;;23.70;99.90;;;;;;5022566;28;20452;-34
2023/07/10 09:34:22;;;;;;;6.28;3.85;;;23.90;99.90;;;;;;5023352;28;20056;-32
2023/07/10 09:36:51;;;;;;;8.18;3.85;;;24.10;99.90;;;;;;5023782;28;20434;-33
2023/07/10 09:39:17;;;;;;;6.35;3.80;;;24.10;99.90;;;;;;5021151;28;20057;-31
2023/07/10 09:41:44;;;;;;;5.55;3.60;;;24.30;99.90;;;;;;5022190;28;21030;-32
2023/07/10 09:44:21;;;;;;;5.15;4.07;;;24.70;99.90;;;;;;5027129;28;20029;-31
2023/07/10 09:46:48;;;;;;;5.57;3.80;;;25.00;99.90;;;;;;5017794;28;20554;-30
2023/07/10 09:49:22;;;;;;;6.70;3.70;;;25.20;99.90;;;;;;5022039;28;20033;-31
2023/07/10 09:52:00;;;;;;;8.13;4.10;;;25.40;99.90;;;;;;5021212;28;20776;-30
2023/07/10 09:54:38;;;;;;;5.30;3.50;;;25.20;99.90;;;;;;5020844;28;20034;-31
2023/07/10 09:57:09;;;;;;;;;;;25.80;99.90;;;;;;5026777;28;20124;-30
2023/07/10 09:59:35;;;;;;;5.80;3.85;;;26.10;99.90;;;;;;5021358;28;19917;-30
2023/07/10 10:02:26;;;;;;;4.50;4.00;;;25.90;99.90;;;;;;5022740;28;20037;-30
2023/07/10 10:05:03;;;;;;;6.03;3.65;;;25.80;99.90;;;;;;5028259;28;20029;-30
2023/07/10 10:07:39;;;;;;;4.95;3.78;;;26.30;99.90;;;;;;5021992;28;20030;-30
2023/07/10 10:10:28;;;;;;;5.90;4.53;;;26.70;99.90;;;;;;5024663;28;20107;-31
2023/07/10 10:13:01;;;;;;;5.60;3.78;;;27.00;99.90;;;;;;5019838;28;20557;-30
2023/07/10 10:15:29;;;;;;;5.97;3.88;;;27.20;99.90;;;;;;5023224;28;20036;-31
2023/07/10 10:18:01;;;;;;;7.20;4.15;;;27.50;99.90;;;;;;5024384;28;20048;-30
2023/07/10 10:20:30;;;;;;;6.75;3.90;;;27.80;99.90;;;;;;5020559;28;20044;-32
2023/07/10 10:22:57;;;;;;;5.65;4.22;;;28.00;99.90;;;;;;5022822;28;20033;-42
2023/07/10 10:25:32;;;;;;;7.65;4.28;;;28.10;99.90;;;;;;5017505;28;20025;-39
2023/07/10 10:28:16;;;;;;;6.43;4.30;;;28.20;99.90;;;;;;5019609;28;20040;-42
2023/07/10 10:30:49;;;;;;;6.20;4.32;;;28.30;99.90;;;;;;5019604;28;20400;-35
2023/07/10 10:33:27;;;;;;;7.00;4.10;;;28.50;99.90;;;;;;5020997;28;20022;-41
2023/07/10 10:35:57;;;;;;;6.15;4.35;;;28.50;99.90;;;;;;5023957;28;20901;-41
2023/07/10 10:38:36;;;;;;;5.35;3.63;;;28.50;99.90;;;;;;5020298;28;20048;-38
2023/07/10 10:41:18;;;;;;;6.05;4.50;;;28.80;99.90;;;;;;5018591;28;20062;-39
2023/07/10 10:44:07;;;;;;;5.72;4.13;;;29.00;99.90;;;;;;5021096;28;20437;-40
2023/07/10 10:46:41;;;;;;;4.68;4.07;;;28.60;99.90;;;;;;5024885;28;20494;-42
2023/07/10 10:49:24;;;;;;;5.60;3.83;;;28.30;99.90;;;;;;5024089;28;20560;-40
2023/07/10 10:52:42;;;;;;;6.80;4.22;;;28.40;99.90;;;;;;5022277;28;20029;-42
2023/07/10 10:55:24;;;;;;;4.97;3.80;;;28.70;99.90;;;;;;5008220;28;20124;-42
2023/07/10 10:58:06;;;;;;;3.90;3.50;;;29.20;99.90;;;;;;5019280;28;20022;-42
2023/07/10 11:00:37;;;;;;;6.15;3.50;;;29.50;99.90;;;;;;5022974;28;20041;-41
2023/07/10 11:03:06;;;;;;;5.35;3.55;;;29.70;99.90;;;;;;5024625;28;20028;-42
2023/07/10 11:05:38;;;;;;;4.80;3.40;;;29.80;99.90;;;;;;5018327;28;20041;-41
2023/07/10 11:08:21;;;;;;;4.90;3.60;;;29.80;99.90;;;;;;5018955;28;20147;-41
2023/07/10 11:10:48;;;;;;;3.20;2.90;;;29.70;99.90;;;;;;5019944;28;20072;-40
2023/07/10 11:13:35;;;;;;;3.92;3.47;;;29.70;99.90;;;;;;5017227;28;20026;-42
2023/07/10 11:16:02;;;;;;;;;;;29.50;99.90;;;;;;5023361;28;20117;-41
2023/07/10 11:18:29;;;;;;;4.65;3.47;;;29.60;99.90;;;;;;5021033;28;20413;-42
2023/07/10 11:20:55;;;;;;;8.93;3.75;;;29.80;99.90;;;;;;5017191;28;20383;-41
2023/07/10 11:23:45;;;;;;;5.63;3.10;;;29.80;99.90;;;;;;5021800;28;20537;-40
2023/07/10 11:26:23;;;;;;;3.90;3.50;;;29.70;99.90;;;;;;5010503;28;20033;-40
2023/07/10 11:28:48;;;;;;;4.38;3.10;;;29.40;99.90;;;;;;5015129;28;20037;-38
2023/07/10 11:31:30;;;;;;;4.85;3.67;;;29.60;99.90;;;;;;5020977;28;20100;-41
2023/07/10 11:34:04;;;;;;;4.65;3.60;;;29.50;99.90;;;;;;5017710;28;20025;-32
2023/07/10 11:36:37;;;;;;;4.85;3.35;;;29.60;99.90;;;;;;5018269;28;20091;-32
2023/07/10 11:39:06;;;;;;;4.07;3.38;;;29.90;99.90;;;;;;5016603;28;20025;-32
2023/07/10 11:41:35;;;;;;;5.55;3.40;;;30.30;99.90;;;;;;5018441;28;20517;-32
2023/07/10 11:44:31;;;;;;;5.38;3.70;;;30.40;99.90;;;;;;5020692;28;20029;-32
2023/07/10 11:47:05;;;;;;;4.70;3.70;;;30.40;99.90;;;;;;5021947;28;20049;-33
2023/07/10 11:49:40;;;;;;;4.47;3.75;;;30.30;99.90;;;;;;5022587;28;20026;-36
2023/07/10 11:52:14;;;;;;;4.15;3.58;;;30.40;99.90;;;;;;5017117;28;20157;-36
2023/07/10 11:54:49;;;;;;;3.75;3.28;;;30.50;99.90;;;;;;5019962;28;20038;-32
2023/07/10 11:57:22;;;;;;;5.70;3.70;;;30.40;99.90;;;;;;5016608;28;20369;-37
2023/07/10 11:59:48;;;;;;;5.47;3.60;;;30.40;99.90;;;;;;5019163;28;20051;-35
2023/07/10 12:02:32;;;;;;;6.30;3.45;;;30.60;99.90;;;;;;5017749;28;20051;-34
2023/07/10 12:05:00;;;;;;;6.65;3.50;;;30.80;99.90;;;;;;5020823;28;20128;-35
2023/07/10 12:07:26;;;;;;;5.43;3.72;;;30.90;99.90;;;;;;5017756;28;20029;-33
2023/07/10 12:09:55;;;;;;;3.78;3.35;;;30.80;99.90;;;;;;5021140;28;20045;-33
2023/07/10 12:12:20;;;;;;;4.68;3.15;;;30.20;99.90;;;;;;5016494;28;20540;-32
2023/07/10 12:14:46;;;;;;;5.32;3.40;;;30.00;99.90;;;;;;5020217;28;20037;-33
2023/07/10 12:17:17;;;;;;;4.72;3.38;;;29.90;99.90;;;;;;5021152;28;20034;-34
2023/07/10 12:19:45;;;;;;;4.82;3.40;;;30.10;99.90;;;;;;5021763;28;20029;-33
2023/07/10 12:22:24;;;;;;;4.32;3.40;;;30.30;99.90;;;;;;5022087;28;20032;-33
2023/07/10 12:24:54;;;;;;;4.13;3.30;;;30.30;99.90;;;;;;5000414;28;20398;-34
2023/07/10 12:27:21;;;;;;;3.75;3.30;;;30.00;99.90;;;;;;5017870;28;20382;-35
2023/07/10 12:29:52;;;;;;;4.18;3.05;;;29.80;99.90;;;;;;5022653;28;20108;-33
2023/07/10 12:32:18;;;;;;;5.43;3.80;;;29.70;99.90;;;;;;5019741;28;20038;-32
2023/07/10 12:34:45;;;;;;;5.53;3.47;;;29.40;99.90;;;;;;5019343;28;20033;-34
2023/07/10 12:37:13;;;;;;;5.97;3.50;;;29.20;99.90;;;;;;5019834;28;20048;-33
2023/07/10 12:39:39;;;;;;;5.13;3.63;;;28.90;99.90;;;;;;5013332;28;20430;-32
2023/07/10 12:42:34;;;;;;;5.32;3.30;;;28.80;99.90;;;;;;5022828;28;20029;-31
2023/07/10 12:45:27;;;;;;;4.30;3.70;;;28.50;99.90;;;;;;5020702;28;20400;-32
2023/07/10 12:48:05;;;;;;;6.80;3.70;;;28.40;99.90;;;;;;5023514;28;20044;-30
2023/07/10 12:50:51;;;;;;;5.35;3.22;;;28.50;99.90;;;;;;5024088;28;20039;-30
2023/07/10 12:53:22;;;;;;;7.10;3.70;;;28.60;99.90;;;;;;5023544;28;20074;-30
2023/07/10 12:56:17;;;;;;;4.90;3.78;;;29.10;99.90;;;;;;5018721;28;20030;-36
2023/07/10 12:58:47;;;;;;;4.00;3.60;;;29.60;99.90;;;;;;4987048;28;20040;-33
2023/07/10 13:01:19;;;;;;;5.18;3.92;;;30.20;99.90;;;;;;5017519;28;20125;-30
2023/07/10 13:03:56;;;;;;;4.88;3.40;;;30.70;99.90;;;;;;5023371;28;20033;-31